New Waterford, Canada
Current Conditions -  °F | °C
As of 1:00 PM on Thursday 18 Dec 2014 (Local Time) from CYQY Reporting Station
Rain Showers Rain Showers  
Wind Chill: 38°   Ceiling: 600
Heat Index: 45°   Visibility: 2mi
Dew Point: 43°   Wind: 13mph
Humidity: 93%   Direction: 190°S
Pressure: 29.5"   Gusts: 21mph
Location:  46.25°N, 60.09°W
Report Text: CYQY 181700Z 19011G18KT 2SM -SHRA BR BKN006 OVC020 07/06 A2950 RMK SC5SC3 CU EMBD SLP990
Loading
Personal Weather Stations






























Interactive Weather Map New forecast layout! Learn more

10-Day Weather Forecast

Advertisements
Track Severe Weather on mobile